createdAt,value
2018-04-17T00:00:21.764Z,15.91
2018-04-17T00:06:22.505Z,15.9
2018-04-17T00:12:23.281Z,16.51
2018-04-17T00:16:23.961Z,17.02
2018-04-17T00:22:24.845Z,18.19
2018-04-17T00:26:25.499Z,17.14
2018-04-17T00:28:26.220Z,16.33
2018-04-17T00:32:27.208Z,15.78
2018-04-17T00:38:28.017Z,19.08
2018-04-17T00:42:29.164Z,16.34
2018-04-17T00:48:30.447Z,17.66
2018-04-17T00:52:31.269Z,14.89
2018-04-17T00:54:32.153Z,15.07
2018-04-17T00:58:33.011Z,15.85
2018-04-17T01:04:34.144Z,14.33
2018-04-17T01:08:34.862Z,15.98
2018-04-17T01:14:35.652Z,15.45
2018-04-17T01:20:36.460Z,17.4
2018-04-17T01:24:37.272Z,17.53
2018-04-17T01:30:38.132Z,16.66
2018-04-17T01:34:38.821Z,12.66
2018-04-17T01:36:39.567Z,19.65
2018-04-17T01:40:40.311Z,15.77
2018-04-17T01:46:41.055Z,13.74
2018-04-17T01:50:41.686Z,13.99
2018-04-17T01:56:42.421Z,14.61
2018-04-17T02:00:43.103Z,15.14
2018-04-17T02:02:43.907Z,12.49
2018-04-17T02:06:44.798Z,16.06
2018-04-17T02:12:45.549Z,17.11
2018-04-17T02:16:46.452Z,15.35
2018-04-17T02:22:47.187Z,17.5
2018-04-17T02:28:48.075Z,14.65
2018-04-17T02:32:48.879Z,16.81
2018-04-17T02:38:49.772Z,16.25
2018-04-17T02:42:50.478Z,15.27
2018-04-17T02:44:51.185Z,14.31
2018-04-17T02:48:51.894Z,15
2018-04-17T02:54:52.580Z,18.67
2018-04-17T02:58:53.297Z,15.66
2018-04-17T03:04:54.163Z,15.05
2018-04-17T03:08:54.940Z,14.02
2018-04-17T03:10:55.632Z,15.59
2018-04-17T03:14:56.439Z,14.95
2018-04-17T03:20:57.298Z,14.38
2018-04-17T03:24:58.226Z,12.59
2018-04-17T03:30:59.073Z,19.13
2018-04-17T03:36:59.950Z,14.44
2018-04-17T03:41:00.739Z,14.82
2018-04-17T03:47:01.825Z,19.05
2018-04-17T03:51:02.608Z,15.1
2018-04-17T03:53:03.318Z,17.59
2018-04-17T03:57:03.988Z,18.77
2018-04-17T04:03:04.741Z,15.2
2018-04-17T04:07:05.459Z,17.22
2018-04-17T04:13:06.220Z,21.98
2018-04-17T04:19:07.019Z,17.49
2018-04-17T04:23:08.070Z,20.19
2018-04-17T04:29:08.953Z,19.92
2018-04-17T04:33:09.907Z,19.39
2018-04-17T04:39:10.628Z,20.24
2018-04-17T04:45:11.724Z,21.43
2018-04-17T04:49:12.733Z,19.25
2018-04-17T04:55:13.548Z,16.54
2018-04-17T04:59:14.381Z,19.8
2018-04-17T05:01:15.221Z,23.73
2018-04-17T05:05:16.192Z,23.31
2018-04-17T05:11:16.999Z,21.7
2018-04-17T05:15:18.083Z,21.82
2018-04-17T05:21:18.935Z,25.48
2018-04-17T05:27:19.734Z,24.78
2018-04-17T05:31:20.502Z,22.12
2018-04-17T05:37:21.398Z,23.52
2018-04-17T05:41:22.077Z,19.31
2018-04-17T05:47:23.023Z,22.43
2018-04-17T05:53:23.765Z,21.35
2018-04-17T05:57:24.531Z,19.73
2018-04-17T06:03:25.297Z,20.18
2018-04-17T06:07:26.124Z,15.32
2018-04-17T06:09:26.810Z,19.3
2018-04-17T06:13:27.505Z,18.54
2018-04-17T06:19:28.250Z,22.48
2018-04-17T06:23:28.965Z,23.12
2018-04-17T06:29:29.806Z,20.56
2018-04-17T06:35:30.633Z,21.11
2018-04-17T06:39:36.819Z,20.54
2018-04-17T06:49:43.174Z,20.98
2018-04-17T06:49:43.333Z,27.52
2018-04-17T06:55:44.155Z,21.97
2018-04-17T07:01:44.875Z,27.11
2018-04-17T07:05:45.646Z,24.68
2018-04-17T07:11:46.499Z,22.99
2018-04-17T07:15:47.276Z,23.99
2018-04-17T07:17:48.098Z,21.7
2018-04-17T07:21:48.822Z,21.48
2018-04-17T07:27:49.628Z,20.41
2018-04-17T07:31:55.103Z,23.07
2018-04-17T07:37:56.183Z,21.78
2018-04-17T07:41:56.877Z,23.88
2018-04-17T07:43:57.675Z,26.6
2018-04-17T07:54:00.198Z,23.22
2018-04-17T07:54:00.388Z,24.03
2018-04-17T07:58:01.154Z,29.9
2018-04-17T08:04:02.131Z,27.29
2018-04-17T08:10:03.078Z,24.64
2018-04-17T08:14:09.408Z,26.42
2018-04-17T08:20:10.247Z,24.98
2018-04-17T08:24:10.990Z,24.72
2018-04-17T08:30:11.960Z,24.41
2018-04-17T08:36:12.683Z,27.88
2018-04-17T08:40:13.449Z,30.98
2018-04-17T08:46:14.222Z,28.99
2018-04-17T08:50:15.056Z,26.5
2018-04-17T08:52:15.739Z,31.49
2018-04-17T08:56:16.567Z,31.34
2018-04-17T09:02:17.454Z,22.33
2018-04-17T09:06:18.962Z,28.03
2018-04-17T09:12:19.748Z,28.74
2018-04-17T09:16:20.735Z,30.8
2018-04-17T09:18:21.545Z,32.57
2018-04-17T09:22:22.394Z,26.91
2018-04-17T09:28:23.037Z,33.6
2018-04-17T09:32:23.807Z,28.86
2018-04-17T09:38:24.587Z,32.66
2018-04-17T09:44:25.685Z,33.54
2018-04-17T09:48:26.403Z,31.25
2018-04-17T09:54:27.245Z,33.62
2018-04-17T09:58:27.988Z,33.9
2018-04-17T10:00:29.390Z,33.47
2018-04-17T10:04:30.128Z,34.25
2018-04-17T10:10:30.832Z,31.63
2018-04-17T10:14:31.560Z,35.5
2018-04-17T10:20:32.373Z,32.38
2018-04-17T10:24:33.149Z,34.32
2018-04-17T10:26:33.869Z,39.04
2018-04-17T10:30:34.726Z,34.56
2018-04-17T10:36:35.450Z,30.5
2018-04-17T10:40:36.205Z,30.97
2018-04-17T10:46:37.076Z,36.68
2018-04-17T10:52:37.772Z,34.7
2018-04-17T10:56:38.628Z,33.64
2018-04-17T11:02:39.308Z,28.69
2018-04-17T11:06:40.046Z,34.81
2018-04-17T11:08:40.745Z,26.23
2018-04-17T11:12:41.941Z,23.57
2018-04-17T11:18:42.729Z,30.5
2018-04-17T11:22:43.647Z,23.08
2018-04-17T11:28:44.366Z,31.52
2018-04-17T11:34:45.165Z,26.93
2018-04-17T11:38:46.037Z,20.59
2018-04-17T11:44:46.901Z,21.31
2018-04-17T11:48:47.757Z,20.25
2018-04-17T11:54:48.590Z,17.09
2018-04-17T12:00:49.673Z,16.5
2018-04-17T12:04:50.566Z,15.27
2018-04-17T12:10:51.387Z,13.05
2018-04-17T12:14:52.170Z,17.57
2018-04-17T12:16:52.899Z,16.02
2018-04-17T12:20:53.781Z,17.19
2018-04-17T12:26:54.536Z,14.52
2018-04-17T12:30:55.276Z,12.99
2018-04-17T12:36:56.115Z,12.13
2018-04-17T12:42:56.933Z,12.73
2018-04-17T12:46:57.743Z,11.68
2018-04-17T12:52:59.083Z,9.97
2018-04-17T12:56:59.913Z,12.02
2018-04-17T12:59:00.860Z,10.54
2018-04-17T13:03:01.713Z,9.88
2018-04-17T13:09:02.601Z,12.58
2018-04-17T13:13:03.439Z,12.31
2018-04-17T13:19:04.296Z,14.35
2018-04-17T13:23:05.401Z,12
2018-04-17T13:25:06.133Z,13.51
2018-04-17T13:29:07.311Z,13.12
2018-04-17T13:35:08.150Z,15.75
2018-04-17T13:39:09.036Z,15.99
2018-04-17T13:45:10.412Z,13.69
2018-04-17T13:51:11.320Z,16.74
2018-04-17T13:55:12.139Z,21.71
2018-04-17T14:01:13.820Z,16.21
2018-04-17T14:05:14.787Z,14.15
2018-04-17T14:07:15.525Z,16.47
2018-04-17T14:11:16.354Z,18.58
2018-04-17T14:17:17.222Z,16.93
2018-04-17T14:21:17.873Z,15.43
2018-04-17T14:27:18.774Z,13.74
2018-04-17T14:31:19.616Z,11.18
2018-04-17T14:33:20.496Z,13.69
2018-04-17T14:37:21.285Z,11.41
2018-04-17T14:43:22.148Z,12.12
2018-04-17T14:47:22.795Z,13.84
2018-04-17T14:53:24.778Z,13.42
2018-04-17T14:59:25.496Z,11.85
2018-04-17T15:03:26.248Z,11.33
2018-04-17T15:09:27.253Z,12.69
2018-04-17T15:13:27.964Z,8.34
2018-04-17T15:15:29.160Z,9.87
2018-04-17T15:19:30.154Z,10.96
2018-04-17T15:25:30.912Z,8.9
2018-04-17T15:29:31.800Z,12.44
2018-04-17T15:35:32.639Z,13.22
2018-04-17T15:41:33.483Z,10.91
2018-04-17T15:45:34.460Z,12.25
2018-04-17T15:51:35.171Z,8.99
2018-04-17T15:55:35.934Z,8.68
2018-04-17T16:01:36.694Z,11.27
2018-04-17T16:07:37.506Z,10.48
2018-04-17T16:11:38.350Z,13.31
2018-04-17T16:17:39.109Z,13.55
2018-04-17T16:21:39.984Z,11.78
2018-04-17T16:23:40.695Z,16.3
2018-04-17T16:27:41.592Z,13.14
2018-04-17T16:33:42.406Z,12.91
2018-04-17T16:37:43.331Z,13.96
2018-04-17T16:43:44.353Z,16.65
2018-04-17T16:49:45.209Z,18.01
2018-04-17T16:53:45.948Z,15.95
2018-04-17T16:59:46.956Z,18.07
2018-04-17T17:03:48.054Z,17.55
2018-04-17T17:05:49.186Z,22.18
2018-04-17T17:09:50.134Z,21.93
2018-04-17T17:15:50.942Z,20.34
2018-04-17T17:19:51.710Z,20.73
2018-04-17T17:25:52.551Z,23.53
2018-04-17T17:29:53.354Z,20.56
2018-04-17T17:31:54.358Z,20.94
2018-04-17T17:35:55.021Z,22.39
2018-04-17T17:41:56.203Z,23.59
2018-04-17T17:45:56.947Z,22.21
2018-04-17T17:51:57.697Z,25.45
2018-04-17T17:57:58.466Z,22.24
2018-04-17T18:01:59.440Z,24.07
2018-04-17T18:08:00.268Z,19.41
2018-04-17T18:12:01.148Z,20.37
2018-04-17T18:14:01.838Z,25.47
2018-04-17T18:18:02.795Z,26.43
2018-04-17T18:24:03.689Z,24.63
2018-04-17T18:28:04.417Z,24.46
2018-04-17T18:34:05.237Z,21.32
2018-04-17T18:40:05.946Z,21.28
2018-04-17T18:44:06.838Z,22.82
2018-04-17T18:50:07.595Z,22.22
2018-04-17T18:54:08.618Z,22.84
2018-04-17T19:00:09.777Z,17.71
2018-04-17T19:06:10.613Z,24.21
2018-04-17T19:10:11.420Z,22.03
2018-04-17T19:16:12.271Z,20.31
2018-04-17T19:20:13.041Z,22.72
2018-04-17T19:22:13.748Z,21.73
2018-04-17T19:26:14.573Z,20.68
2018-04-17T19:32:15.343Z,19.26
2018-04-17T19:36:16.063Z,21.27
2018-04-17T19:42:16.865Z,18.8
2018-04-17T19:48:17.792Z,18.91
2018-04-17T19:52:18.745Z,16.33
2018-04-17T19:58:19.727Z,22.94
2018-04-17T20:02:20.692Z,22.28
2018-04-17T20:04:21.681Z,17.96
2018-04-17T20:08:22.616Z,17.08
2018-04-17T20:14:23.434Z,16.48
2018-04-17T20:18:24.647Z,20.63
2018-04-17T20:24:25.424Z,18.47
2018-04-17T20:28:26.364Z,16.82
2018-04-17T20:30:27.464Z,19.56
2018-04-17T20:34:28.235Z,16.61
2018-04-17T20:40:28.988Z,16.23
2018-04-17T20:44:29.851Z,12.74
2018-04-17T20:50:31.143Z,16.53
2018-04-17T20:56:31.961Z,17.98
2018-04-17T21:00:33.082Z,14.7
2018-04-17T21:06:33.860Z,22.85
2018-04-17T21:10:34.913Z,25.71
2018-04-17T21:12:35.707Z,22.11
2018-04-17T21:16:36.521Z,23.18
2018-04-17T21:22:37.362Z,20.27
2018-04-17T21:26:38.194Z,19.36
2018-04-17T21:32:39.087Z,17.84
2018-04-17T21:36:39.777Z,16.77
2018-04-17T21:38:40.917Z,18.13
2018-04-17T21:42:42.038Z,18.55
2018-04-17T21:48:42.793Z,20.53
2018-04-17T21:52:43.513Z,19.78
2018-04-17T21:58:44.547Z,15.75
2018-04-17T22:04:45.388Z,15.63
2018-04-17T22:08:46.218Z,11.7
2018-04-17T22:14:52.701Z,13.98
2018-04-17T22:18:53.833Z,11.61
2018-04-17T22:24:54.591Z,14.54
2018-04-17T22:30:55.308Z,14.58
2018-04-17T22:34:56.023Z,14.49
2018-04-17T22:40:56.823Z,11.65
2018-04-17T22:44:57.551Z,11.31
2018-04-17T22:46:58.277Z,13.5
2018-04-17T22:50:58.980Z,11.94
2018-04-17T22:56:59.667Z,15.73
2018-04-17T23:01:00.440Z,11.92
2018-04-17T23:07:01.214Z,15.58
2018-04-17T23:13:02.131Z,8.27
2018-04-17T23:17:02.866Z,10.54
2018-04-17T23:23:03.631Z,11.65
2018-04-17T23:27:04.393Z,12.46
2018-04-17T23:29:05.137Z,12.87
2018-04-17T23:33:06.043Z,10.63
2018-04-17T23:39:06.773Z,11.88
2018-04-17T23:43:07.619Z,10.53
2018-04-17T23:49:08.443Z,12.17
2018-04-17T23:53:09.455Z,11.38
2018-04-17T23:55:10.244Z,10.25
2018-04-17T23:59:10.934Z,12.46
